METAR Data
IDs: Format: Raw Decoded Include TAF

Data at: 0214 UTC 24 Sep 2018

KUKI 240156Z AUTO 01004KT 10SM CLR 24/04 A2982 RMK AO2 SLP093 T02390039
KUKI 240056Z AUTO 36007KT 10SM CLR 28/03 A2981 RMK AO2 SLP088 T02830028
KUKI 232356Z AUTO 21006KT 10SM CLR 30/M01 A2981 RMK AO2 SLP086 T03001006 10311 20222 56016
KUKI 232256Z AUTO 33010G15KT 10SM CLR 31/01 A2982 RMK AO2 SLP090 T03110011
KUKI 232156Z AUTO VRB06KT 10SM CLR 31/M06 A2983 RMK AO2 SLP094 T03111056
KUKI 232056Z AUTO 34006KT 10SM CLR 30/M02 A2986 RMK AO2 SLP102 T03001017 58020
KUKI 231956Z AUTO VRB04KT 10SM CLR 28/08 A2988 RMK AO2 SLP110 T02780078
KUKI 231856Z AUTO 22004KT 10SM CLR 24/08 A2990 RMK AO2 SLP118 T02390083
KUKI 231756Z AUTO VRB03KT 10SM CLR 23/09 A2992 RMK AO2 SLP124 T02280089 10228 20089 58004
KUKI 231656Z AUTO 00000KT 10SM CLR 19/09 A2993 RMK AO2 SLP128 T01890089
KUKI 231556Z AUTO 00000KT 10SM CLR 16/09 A2993 RMK AO2 SLP128 T01610089
KUKI 231456Z AUTO 00000KT 10SM CLR 11/07 A2993 RMK AO2 SLP129 T01060072 53008
KUKI 231356Z AUTO 00000KT 10SM CLR 09/07 A2992 RMK AO2 SLP124 T00940067
KUKI 231256Z AUTO 00000KT 10SM CLR 10/07 A2991 RMK AO2 SLP121 T01000067
KUKI 231156Z AUTO 00000KT 10SM CLR 12/07 A2990 RMK AO2 SLP119 T01170072 10172 20106 58004
KUKI 231056Z AUTO 00000KT 10SM CLR 12/08 A2991 RMK AO2 SLP120 T01170078
KUKI 230956Z AUTO 00000KT 10SM CLR 12/08 A2991 RMK AO2 SLP121 T01170078
KUKI 230856Z AUTO 00000KT 10SM CLR 13/08 A2991 RMK AO2 SLP122 T01280078 58001
KUKI 230756Z AUTO 00000KT 10SM CLR 14/08 A2992 RMK AO2 SLP123 T01390083 403220078
KUKI 230656Z AUTO 00000KT 10SM CLR 16/08 A2992 RMK AO2 SLP123 T01560083
KUKI 230556Z AUTO 34003KT 10SM CLR 17/08 A2992 RMK AO2 SLP124 T01720078 10294 20167 50000
KUKI 230456Z AUTO 00000KT 10SM CLR 17/07 A2993 RMK AO2 SLP129 T01720072
KUKI 230356Z AUTO 00000KT 10SM CLR 21/08 A2992 RMK AO2 SLP128 T02060083
KUKI 230256Z AUTO 03006KT 10SM CLR 22/08 A2992 RMK AO2 SLP125 T02170083 51007
KUKI 230156Z AUTO 35010KT 10SM CLR 23/07 A2991 RMK AO2 SLP124 T02330072
KUKI 230056Z AUTO 01007KT 10SM CLR 27/05 A2991 RMK AO2 SLP121 T02670050
KUKI 222356Z AUTO 28011KT 10SM CLR 29/02 A2990 RMK AO2 SLP117 T02940017 10322 20217 56008
KUKI 222256Z AUTO 30009KT 10SM CLR 31/02 A2990 RMK AO2 SLP118 T03110017
KUKI 222156Z AUTO 33009KT 10SM CLR 32/M02 A2990 RMK AO2 SLP118 T03221017
KUKI 222056Z AUTO 02009KT 10SM CLR 32/01 A2992 RMK AO2 SLP125 T03220006 58021
KUKI 221956Z AUTO 09003KT 10SM CLR 29/03 A2995 RMK AO2 SLP134 T02890028
KUKI 221856Z AUTO 00000KT 10SM CLR 26/02 A2997 RMK AO2 SLP141 T02610017
KUKI 221756Z AUTO VRB03KT 10SM CLR 22/02 A2999 RMK AO2 SLP147 T02220022 10222 20078 58007
KUKI 221656Z AUTO 00000KT 10SM CLR 18/03 A3000 RMK AO2 SLP152 T01780033
KUKI 221556Z AUTO 00000KT 10SM CLR 13/03 A3001 RMK AO2 SLP156 T01280033
KUKI 221456Z AUTO 00000KT 10SM CLR 10/03 A3001 RMK AO2 SLP156 T01000033 53009